sensor_id;sensor_type;location;lat;lon;timestamp;P1;durP1;ratioP1;P2;durP2;ratioP2
23290;SDS011;11814;44.686;10.842;2023-11-21T00:00:18;82.18;;;59.47;;
23290;SDS011;11814;44.686;10.842;2023-11-21T00:02:45;80.93;;;60.15;;
23290;SDS011;11814;44.686;10.842;2023-11-21T00:05:11;82.05;;;60.13;;
23290;SDS011;11814;44.686;10.842;2023-11-21T00:07:41;77.82;;;61.58;;
23290;SDS011;11814;44.686;10.842;2023-11-21T00:10:08;81.97;;;61.38;;
23290;SDS011;11814;44.686;10.842;2023-11-21T00:12:35;81.57;;;60.60;;
23290;SDS011;11814;44.686;10.842;2023-11-21T00:15:01;84.28;;;63.30;;
23290;SDS011;11814;44.686;10.842;2023-11-21T00:17:28;79.20;;;60.35;;
23290;SDS011;11814;44.686;10.842;2023-11-21T00:19:53;78.32;;;55.55;;
23290;SDS011;11814;44.686;10.842;2023-11-21T00:22:19;79.75;;;57.97;;
23290;SDS011;11814;44.686;10.842;2023-11-21T00:24:45;75.60;;;55.28;;
23290;SDS011;11814;44.686;10.842;2023-11-21T00:27:11;72.15;;;57.08;;
23290;SDS011;11814;44.686;10.842;2023-11-21T00:29:37;69.63;;;54.30;;
23290;SDS011;11814;44.686;10.842;2023-11-21T00:32:04;71.63;;;55.53;;
23290;SDS011;11814;44.686;10.842;2023-11-21T00:34:30;76.57;;;57.63;;
23290;SDS011;11814;44.686;10.842;2023-11-21T00:36:56;81.22;;;58.28;;
23290;SDS011;11814;44.686;10.842;2023-11-21T00:39:22;77.15;;;58.70;;
23290;SDS011;11814;44.686;10.842;2023-11-21T00:41:48;75.85;;;58.38;;
23290;SDS011;11814;44.686;10.842;2023-11-21T00:44:14;80.07;;;58.67;;
23290;SDS011;11814;44.686;10.842;2023-11-21T00:46:41;79.45;;;60.05;;
23290;SDS011;11814;44.686;10.842;2023-11-21T00:49:07;77.95;;;59.72;;
23290;SDS011;11814;44.686;10.842;2023-11-21T00:51:32;84.18;;;61.80;;
23290;SDS011;11814;44.686;10.842;2023-11-21T00:53:58;80.97;;;61.20;;
23290;SDS011;11814;44.686;10.842;2023-11-21T00:56:24;92.20;;;63.88;;
23290;SDS011;11814;44.686;10.842;2023-11-21T00:58:50;94.90;;;64.70;;
23290;SDS011;11814;44.686;10.842;2023-11-21T01:01:17;87.15;;;64.88;;
23290;SDS011;11814;44.686;10.842;2023-11-21T01:03:43;90.72;;;65.82;;
23290;SDS011;11814;44.686;10.842;2023-11-21T01:06:11;91.10;;;63.70;;
23290;SDS011;11814;44.686;10.842;2023-11-21T01:08:37;91.82;;;65.25;;
23290;SDS011;11814;44.686;10.842;2023-11-21T01:11:02;87.43;;;63.92;;
23290;SDS011;11814;44.686;10.842;2023-11-21T01:13:29;92.85;;;66.47;;
23290;SDS011;11814;44.686;10.842;2023-11-21T01:15:55;88.03;;;62.35;;
23290;SDS011;11814;44.686;10.842;2023-11-21T01:18:21;84.75;;;64.03;;
23290;SDS011;11814;44.686;10.842;2023-11-21T01:20:47;82.93;;;61.22;;
23290;SDS011;11814;44.686;10.842;2023-11-21T01:23:13;84.05;;;61.65;;
23290;SDS011;11814;44.686;10.842;2023-11-21T01:25:39;81.93;;;60.35;;
23290;SDS011;11814;44.686;10.842;2023-11-21T01:28:05;81.65;;;62.53;;
23290;SDS011;11814;44.686;10.842;2023-11-21T01:30:30;92.78;;;63.63;;
23290;SDS011;11814;44.686;10.842;2023-11-21T01:32:57;85.78;;;62.78;;
23290;SDS011;11814;44.686;10.842;2023-11-21T01:35:23;79.28;;;60.22;;
23290;SDS011;11814;44.686;10.842;2023-11-21T01:37:49;92.90;;;64.43;;
23290;SDS011;11814;44.686;10.842;2023-11-21T01:40:14;84.88;;;63.28;;
23290;SDS011;11814;44.686;10.842;2023-11-21T01:42:40;83.65;;;62.95;;
23290;SDS011;11814;44.686;10.842;2023-11-21T01:45:08;87.25;;;63.47;;
23290;SDS011;11814;44.686;10.842;2023-11-21T01:47:35;91.38;;;65.28;;
23290;SDS011;11814;44.686;10.842;2023-11-21T01:50:01;93.25;;;65.53;;
23290;SDS011;11814;44.686;10.842;2023-11-21T01:52:31;92.93;;;66.82;;
23290;SDS011;11814;44.686;10.842;2023-11-21T01:54:59;88.68;;;65.40;;
23290;SDS011;11814;44.686;10.842;2023-11-21T01:57:25;86.32;;;63.55;;
23290;SDS011;11814;44.686;10.842;2023-11-21T01:59:51;86.82;;;63.00;;
23290;SDS011;11814;44.686;10.842;2023-11-21T02:02:19;81.47;;;62.88;;
23290;SDS011;11814;44.686;10.842;2023-11-21T02:04:45;82.78;;;61.85;;
23290;SDS011;11814;44.686;10.842;2023-11-21T02:07:11;87.57;;;62.10;;
23290;SDS011;11814;44.686;10.842;2023-11-21T02:09:37;86.53;;;62.58;;
23290;SDS011;11814;44.686;10.842;2023-11-21T02:12:07;83.72;;;61.72;;
23290;SDS011;11814;44.686;10.842;2023-11-21T02:14:35;82.55;;;61.95;;
23290;SDS011;11814;44.686;10.842;2023-11-21T02:17:01;79.22;;;60.28;;
23290;SDS011;11814;44.686;10.842;2023-11-21T02:19:29;85.13;;;62.13;;
23290;SDS011;11814;44.686;10.842;2023-11-21T02:21:56;83.13;;;60.05;;
23290;SDS011;11814;44.686;10.842;2023-11-21T02:24:28;80.85;;;59.78;;
23290;SDS011;11814;44.686;10.842;2023-11-21T02:26:54;82.13;;;58.95;;
23290;SDS011;11814;44.686;10.842;2023-11-21T02:29:20;81.50;;;59.20;;
23290;SDS011;11814;44.686;10.842;2023-11-21T02:32:04;80.57;;;58.13;;
23290;SDS011;11814;44.686;10.842;2023-11-21T02:34:30;81.05;;;60.00;;
23290;SDS011;11814;44.686;10.842;2023-11-21T02:36:56;80.55;;;57.92;;
23290;SDS011;11814;44.686;10.842;2023-11-21T02:39:22;79.43;;;55.42;;
23290;SDS011;11814;44.686;10.842;2023-11-21T02:41:48;80.85;;;58.22;;
23290;SDS011;11814;44.686;10.842;2023-11-21T02:44:15;81.47;;;57.58;;
23290;SDS011;11814;44.686;10.842;2023-11-21T02:46:40;80.40;;;57.78;;
23290;SDS011;11814;44.686;10.842;2023-11-21T02:49:06;81.25;;;59.83;;
23290;SDS011;11814;44.686;10.842;2023-11-21T02:51:32;80.13;;;57.58;;
23290;SDS011;11814;44.686;10.842;2023-11-21T02:53:58;80.03;;;59.28;;
23290;SDS011;11814;44.686;10.842;2023-11-21T02:56:27;87.03;;;60.40;;
23290;SDS011;11814;44.686;10.842;2023-11-21T02:58:56;80.90;;;59.20;;
23290;SDS011;11814;44.686;10.842;2023-11-21T03:01:22;78.07;;;58.13;;
23290;SDS011;11814;44.686;10.842;2023-11-21T03:03:50;75.75;;;55.50;;
23290;SDS011;11814;44.686;10.842;2023-11-21T03:06:19;80.10;;;57.35;;
23290;SDS011;11814;44.686;10.842;2023-11-21T03:08:45;75.18;;;56.33;;
23290;SDS011;11814;44.686;10.842;2023-11-21T03:11:11;80.43;;;56.20;;
23290;SDS011;11814;44.686;10.842;2023-11-21T03:13:40;79.53;;;57.10;;
23290;SDS011;11814;44.686;10.842;2023-11-21T03:16:09;78.55;;;57.25;;
23290;SDS011;11814;44.686;10.842;2023-11-21T03:18:36;81.82;;;59.08;;
23290;SDS011;11814;44.686;10.842;2023-11-21T03:21:02;79.18;;;57.00;;
23290;SDS011;11814;44.686;10.842;2023-11-21T03:23:33;79.15;;;57.05;;
23290;SDS011;11814;44.686;10.842;2023-11-21T03:26:00;77.25;;;57.85;;
23290;SDS011;11814;44.686;10.842;2023-11-21T03:28:26;76.13;;;55.45;;
23290;SDS011;11814;44.686;10.842;2023-11-21T03:30:55;79.15;;;57.35;;
23290;SDS011;11814;44.686;10.842;2023-11-21T03:33:21;79.47;;;56.13;;
23290;SDS011;11814;44.686;10.842;2023-11-21T03:35:47;76.00;;;54.78;;
23290;SDS011;11814;44.686;10.842;2023-11-21T03:38:14;75.38;;;54.20;;
23290;SDS011;11814;44.686;10.842;2023-11-21T03:40:39;78.72;;;54.90;;
23290;SDS011;11814;44.686;10.842;2023-11-21T03:43:05;74.38;;;53.05;;
23290;SDS011;11814;44.686;10.842;2023-11-21T03:45:31;71.57;;;53.72;;
23290;SDS011;11814;44.686;10.842;2023-11-21T03:47:57;75.93;;;55.28;;
23290;SDS011;11814;44.686;10.842;2023-11-21T03:50:23;78.70;;;55.65;;
23290;SDS011;11814;44.686;10.842;2023-11-21T03:52:48;80.32;;;56.08;;
23290;SDS011;11814;44.686;10.842;2023-11-21T03:55:14;80.38;;;57.08;;
23290;SDS011;11814;44.686;10.842;2023-11-21T03:57:40;83.63;;;57.22;;
23290;SDS011;11814;44.686;10.842;2023-11-21T04:00:06;77.78;;;57.97;;
23290;SDS011;11814;44.686;10.842;2023-11-21T04:02:34;78.38;;;59.38;;
23290;SDS011;11814;44.686;10.842;2023-11-21T04:05:00;83.15;;;60.17;;
23290;SDS011;11814;44.686;10.842;2023-11-21T04:07:25;84.38;;;60.38;;
23290;SDS011;11814;44.686;10.842;2023-11-21T04:09:52;78.95;;;59.35;;
23290;SDS011;11814;44.686;10.842;2023-11-21T04:12:18;81.25;;;59.30;;
23290;SDS011;11814;44.686;10.842;2023-11-21T04:14:44;79.68;;;58.92;;
23290;SDS011;11814;44.686;10.842;2023-11-21T04:17:10;83.25;;;61.83;;
23290;SDS011;11814;44.686;10.842;2023-11-21T04:19:35;85.43;;;62.08;;
23290;SDS011;11814;44.686;10.842;2023-11-21T04:22:01;87.95;;;64.28;;
23290;SDS011;11814;44.686;10.842;2023-11-21T04:24:27;85.10;;;62.72;;
23290;SDS011;11814;44.686;10.842;2023-11-21T04:26:53;85.32;;;64.13;;
23290;SDS011;11814;44.686;10.842;2023-11-21T04:29:18;90.43;;;65.88;;
23290;SDS011;11814;44.686;10.842;2023-11-21T04:31:44;88.40;;;65.07;;
23290;SDS011;11814;44.686;10.842;2023-11-21T04:34:09;90.93;;;68.55;;
23290;SDS011;11814;44.686;10.842;2023-11-21T04:36:35;87.93;;;66.40;;
23290;SDS011;11814;44.686;10.842;2023-11-21T04:39:01;92.95;;;67.10;;
23290;SDS011;11814;44.686;10.842;2023-11-21T04:41:26;92.47;;;67.63;;
23290;SDS011;11814;44.686;10.842;2023-11-21T04:43:52;91.72;;;69.40;;
23290;SDS011;11814;44.686;10.842;2023-11-21T04:46:18;98.28;;;71.72;;
23290;SDS011;11814;44.686;10.842;2023-11-21T04:48:43;97.85;;;71.35;;
23290;SDS011;11814;44.686;10.842;2023-11-21T04:51:09;94.25;;;70.13;;
23290;SDS011;11814;44.686;10.842;2023-11-21T04:53:36;102.47;;;77.35;;
23290;SDS011;11814;44.686;10.842;2023-11-21T04:56:02;109.00;;;80.97;;
23290;SDS011;11814;44.686;10.842;2023-11-21T04:58:28;107.40;;;81.05;;
23290;SDS011;11814;44.686;10.842;2023-11-21T05:00:54;105.63;;;78.35;;
23290;SDS011;11814;44.686;10.842;2023-11-21T05:03:20;103.93;;;80.22;;
23290;SDS011;11814;44.686;10.842;2023-11-21T05:05:45;106.88;;;79.93;;
23290;SDS011;11814;44.686;10.842;2023-11-21T05:08:11;99.68;;;78.43;;
23290;SDS011;11814;44.686;10.842;2023-11-21T05:10:37;98.78;;;77.72;;
23290;SDS011;11814;44.686;10.842;2023-11-21T05:13:04;95.47;;;76.15;;
23290;SDS011;11814;44.686;10.842;2023-11-21T05:15:34;96.35;;;73.72;;
23290;SDS011;11814;44.686;10.842;2023-11-21T05:18:00;93.47;;;71.07;;
23290;SDS011;11814;44.686;10.842;2023-11-21T05:20:26;98.40;;;72.40;;
23290;SDS011;11814;44.686;10.842;2023-11-21T05:22:51;103.68;;;74.78;;
23290;SDS011;11814;44.686;10.842;2023-11-21T05:25:17;98.55;;;74.93;;
23290;SDS011;11814;44.686;10.842;2023-11-21T05:27:44;95.00;;;72.85;;
23290;SDS011;11814;44.686;10.842;2023-11-21T05:30:10;97.15;;;73.20;;
23290;SDS011;11814;44.686;10.842;2023-11-21T05:32:37;94.47;;;70.63;;
23290;SDS011;11814;44.686;10.842;2023-11-21T05:35:03;92.50;;;70.55;;
23290;SDS011;11814;44.686;10.842;2023-11-21T05:37:34;93.32;;;70.53;;
23290;SDS011;11814;44.686;10.842;2023-11-21T05:40:01;95.15;;;69.32;;
23290;SDS011;11814;44.686;10.842;2023-11-21T05:42:31;94.80;;;71.90;;
23290;SDS011;11814;44.686;10.842;2023-11-21T05:44:57;95.80;;;72.85;;
23290;SDS011;11814;44.686;10.842;2023-11-21T05:47:24;101.68;;;73.15;;
23290;SDS011;11814;44.686;10.842;2023-11-21T05:49:51;103.75;;;75.28;;
23290;SDS011;11814;44.686;10.842;2023-11-21T05:52:17;96.50;;;73.35;;
23290;SDS011;11814;44.686;10.842;2023-11-21T05:54:43;99.10;;;73.82;;
23290;SDS011;11814;44.686;10.842;2023-11-21T05:57:09;101.45;;;74.80;;
23290;SDS011;11814;44.686;10.842;2023-11-21T05:59:34;96.45;;;72.60;;
23290;SDS011;11814;44.686;10.842;2023-11-21T06:02:00;98.60;;;71.90;;
23290;SDS011;11814;44.686;10.842;2023-11-21T06:04:27;97.32;;;73.13;;
23290;SDS011;11814;44.686;10.842;2023-11-21T06:06:52;102.78;;;72.65;;
23290;SDS011;11814;44.686;10.842;2023-11-21T06:09:18;95.50;;;71.25;;
23290;SDS011;11814;44.686;10.842;2023-11-21T06:11:44;99.43;;;71.40;;
23290;SDS011;11814;44.686;10.842;2023-11-21T06:14:10;102.03;;;73.68;;
23290;SDS011;11814;44.686;10.842;2023-11-21T06:16:36;98.93;;;73.70;;
23290;SDS011;11814;44.686;10.842;2023-11-21T06:19:01;103.68;;;75.57;;
23290;SDS011;11814;44.686;10.842;2023-11-21T06:21:27;100.13;;;75.45;;
23290;SDS011;11814;44.686;10.842;2023-11-21T06:23:53;99.97;;;74.60;;
23290;SDS011;11814;44.686;10.842;2023-11-21T06:26:21;101.53;;;74.35;;
23290;SDS011;11814;44.686;10.842;2023-11-21T06:28:47;103.82;;;77.32;;
23290;SDS011;11814;44.686;10.842;2023-11-21T06:31:16;101.68;;;73.55;;
23290;SDS011;11814;44.686;10.842;2023-11-21T06:33:42;95.03;;;72.40;;
23290;SDS011;11814;44.686;10.842;2023-11-21T06:36:08;90.15;;;69.30;;
23290;SDS011;11814;44.686;10.842;2023-11-21T06:38:36;96.07;;;69.72;;
23290;SDS011;11814;44.686;10.842;2023-11-21T06:41:02;96.15;;;70.35;;
23290;SDS011;11814;44.686;10.842;2023-11-21T06:43:29;104.32;;;74.90;;
23290;SDS011;11814;44.686;10.842;2023-11-21T06:45:56;99.30;;;75.15;;
23290;SDS011;11814;44.686;10.842;2023-11-21T06:48:22;102.45;;;74.22;;
23290;SDS011;11814;44.686;10.842;2023-11-21T06:50:48;100.55;;;72.70;;
23290;SDS011;11814;44.686;10.842;2023-11-21T06:53:14;99.32;;;72.10;;
23290;SDS011;11814;44.686;10.842;2023-11-21T06:55:39;96.63;;;71.18;;
23290;SDS011;11814;44.686;10.842;2023-11-21T06:58:05;98.45;;;76.18;;
23290;SDS011;11814;44.686;10.842;2023-11-21T07:00:31;101.88;;;75.25;;
23290;SDS011;11814;44.686;10.842;2023-11-21T07:02:56;104.28;;;74.30;;
23290;SDS011;11814;44.686;10.842;2023-11-21T07:05:22;104.32;;;75.75;;
23290;SDS011;11814;44.686;10.842;2023-11-21T07:07:48;105.65;;;78.22;;
23290;SDS011;11814;44.686;10.842;2023-11-21T07:10:14;110.68;;;78.78;;
23290;SDS011;11814;44.686;10.842;2023-11-21T07:12:40;105.72;;;76.30;;
23290;SDS011;11814;44.686;10.842;2023-11-21T07:15:06;106.90;;;77.40;;
23290;SDS011;11814;44.686;10.842;2023-11-21T07:17:34;112.15;;;77.60;;
23290;SDS011;11814;44.686;10.842;2023-11-21T07:20:00;106.88;;;76.97;;
23290;SDS011;11814;44.686;10.842;2023-11-21T07:22:27;103.53;;;76.70;;
23290;SDS011;11814;44.686;10.842;2023-11-21T07:24:52;113.25;;;80.78;;
23290;SDS011;11814;44.686;10.842;2023-11-21T07:27:18;102.85;;;75.78;;
23290;SDS011;11814;44.686;10.842;2023-11-21T07:29:44;101.22;;;76.78;;
23290;SDS011;11814;44.686;10.842;2023-11-21T07:32:10;96.82;;;74.35;;
23290;SDS011;11814;44.686;10.842;2023-11-21T07:34:36;102.82;;;75.53;;
23290;SDS011;11814;44.686;10.842;2023-11-21T07:37:02;101.65;;;74.43;;
23290;SDS011;11814;44.686;10.842;2023-11-21T07:39:28;102.88;;;77.47;;
23290;SDS011;11814;44.686;10.842;2023-11-21T07:41:54;104.80;;;77.13;;
23290;SDS011;11814;44.686;10.842;2023-11-21T07:44:20;99.80;;;75.00;;
23290;SDS011;11814;44.686;10.842;2023-11-21T07:46:46;102.70;;;76.00;;
23290;SDS011;11814;44.686;10.842;2023-11-21T07:49:13;99.88;;;73.10;;
23290;SDS011;11814;44.686;10.842;2023-11-21T07:51:43;107.22;;;77.85;;
23290;SDS011;11814;44.686;10.842;2023-11-21T07:54:08;98.85;;;75.45;;
23290;SDS011;11814;44.686;10.842;2023-11-21T07:56:35;102.45;;;75.70;;
23290;SDS011;11814;44.686;10.842;2023-11-21T07:59:01;99.65;;;75.47;;
23290;SDS011;11814;44.686;10.842;2023-11-21T08:01:26;103.32;;;77.60;;
23290;SDS011;11814;44.686;10.842;2023-11-21T08:03:53;107.13;;;79.45;;
23290;SDS011;11814;44.686;10.842;2023-11-21T08:06:22;106.20;;;76.55;;
23290;SDS011;11814;44.686;10.842;2023-11-21T08:08:51;101.25;;;75.30;;
23290;SDS011;11814;44.686;10.842;2023-11-21T08:11:17;100.10;;;76.20;;
23290;SDS011;11814;44.686;10.842;2023-11-21T08:13:42;100.38;;;75.30;;
23290;SDS011;11814;44.686;10.842;2023-11-21T08:16:08;102.72;;;74.60;;
23290;SDS011;11814;44.686;10.842;2023-11-21T08:18:33;106.97;;;78.20;;
23290;SDS011;11814;44.686;10.842;2023-11-21T08:20:59;110.60;;;80.95;;
23290;SDS011;11814;44.686;10.842;2023-11-21T08:23:25;112.88;;;82.95;;
23290;SDS011;11814;44.686;10.842;2023-11-21T08:25:54;103.00;;;75.68;;
23290;SDS011;11814;44.686;10.842;2023-11-21T08:28:20;107.43;;;79.63;;
23290;SDS011;11814;44.686;10.842;2023-11-21T08:30:50;115.22;;;84.43;;
23290;SDS011;11814;44.686;10.842;2023-11-21T08:33:19;113.90;;;83.68;;
23290;SDS011;11814;44.686;10.842;2023-11-21T08:35:45;110.97;;;80.97;;
23290;SDS011;11814;44.686;10.842;2023-11-21T08:38:11;112.57;;;82.95;;
23290;SDS011;11814;44.686;10.842;2023-11-21T08:40:37;110.75;;;82.93;;
23290;SDS011;11814;44.686;10.842;2023-11-21T08:43:03;109.78;;;81.35;;
23290;SDS011;11814;44.686;10.842;2023-11-21T08:45:33;111.43;;;81.30;;
23290;SDS011;11814;44.686;10.842;2023-11-21T08:48:02;120.32;;;85.85;;
23290;SDS011;11814;44.686;10.842;2023-11-21T08:50:28;105.53;;;79.35;;
23290;SDS011;11814;44.686;10.842;2023-11-21T08:52:54;105.50;;;80.30;;
23290;SDS011;11814;44.686;10.842;2023-11-21T08:55:19;106.63;;;79.78;;
23290;SDS011;11814;44.686;10.842;2023-11-21T08:57:45;103.13;;;76.50;;
23290;SDS011;11814;44.686;10.842;2023-11-21T09:00:14;110.13;;;79.95;;
23290;SDS011;11814;44.686;10.842;2023-11-21T09:02:42;110.80;;;82.30;;
23290;SDS011;11814;44.686;10.842;2023-11-21T09:05:09;104.35;;;79.13;;
23290;SDS011;11814;44.686;10.842;2023-11-21T09:07:39;106.45;;;80.22;;
23290;SDS011;11814;44.686;10.842;2023-11-21T09:10:06;112.50;;;80.32;;
23290;SDS011;11814;44.686;10.842;2023-11-21T09:12:32;102.55;;;77.15;;
23290;SDS011;11814;44.686;10.842;2023-11-21T09:15:00;112.45;;;82.22;;
23290;SDS011;11814;44.686;10.842;2023-11-21T09:17:29;113.53;;;82.35;;
23290;SDS011;11814;44.686;10.842;2023-11-21T09:19:55;115.95;;;85.57;;
23290;SDS011;11814;44.686;10.842;2023-11-21T09:22:22;108.60;;;80.05;;
23290;SDS011;11814;44.686;10.842;2023-11-21T09:24:49;107.18;;;77.63;;
23290;SDS011;11814;44.686;10.842;2023-11-21T09:27:15;105.00;;;77.70;;
23290;SDS011;11814;44.686;10.842;2023-11-21T09:29:42;105.13;;;77.45;;
23290;SDS011;11814;44.686;10.842;2023-11-21T09:32:08;111.15;;;81.93;;
23290;SDS011;11814;44.686;10.842;2023-11-21T09:34:37;110.07;;;81.25;;
23290;SDS011;11814;44.686;10.842;2023-11-21T09:37:03;114.10;;;83.57;;
23290;SDS011;11814;44.686;10.842;2023-11-21T09:39:31;115.47;;;85.07;;
23290;SDS011;11814;44.686;10.842;2023-11-21T09:41:57;107.30;;;79.95;;
23290;SDS011;11814;44.686;10.842;2023-11-21T09:47:35;117.95;;;81.55;;
23290;SDS011;11814;44.686;10.842;2023-11-21T09:50:03;113.78;;;80.80;;
23290;SDS011;11814;44.686;10.842;2023-11-21T09:52:33;104.93;;;78.93;;
23290;SDS011;11814;44.686;10.842;2023-11-21T09:55:26;107.78;;;79.97;;
23290;SDS011;11814;44.686;10.842;2023-11-21T09:57:54;106.18;;;76.07;;
23290;SDS011;11814;44.686;10.842;2023-11-21T10:00:22;109.88;;;79.95;;
23290;SDS011;11814;44.686;10.842;2023-11-21T10:02:52;105.28;;;75.25;;
23290;SDS011;11814;44.686;10.842;2023-11-21T10:05:18;108.13;;;76.78;;
23290;SDS011;11814;44.686;10.842;2023-11-21T10:07:44;106.97;;;75.97;;
23290;SDS011;11814;44.686;10.842;2023-11-21T10:10:11;98.65;;;72.10;;
23290;SDS011;11814;44.686;10.842;2023-11-21T10:12:41;113.60;;;82.00;;
23290;SDS011;11814;44.686;10.842;2023-11-21T10:15:09;117.57;;;84.68;;
23290;SDS011;11814;44.686;10.842;2023-11-21T10:17:40;109.60;;;80.05;;
23290;SDS011;11814;44.686;10.842;2023-11-21T10:20:13;114.97;;;83.15;;
23290;SDS011;11814;44.686;10.842;2023-11-21T10:22:40;108.65;;;81.32;;
23290;SDS011;11814;44.686;10.842;2023-11-21T10:25:08;108.32;;;81.07;;
23290;SDS011;11814;44.686;10.842;2023-11-21T10:27:35;116.45;;;84.40;;
23290;SDS011;11814;44.686;10.842;2023-11-21T10:30:04;108.43;;;80.95;;
23290;SDS011;11814;44.686;10.842;2023-11-21T10:32:31;111.68;;;82.13;;
23290;SDS011;11814;44.686;10.842;2023-11-21T10:34:58;102.75;;;75.43;;
23290;SDS011;11814;44.686;10.842;2023-11-21T10:37:31;100.68;;;73.97;;
23290;SDS011;11814;44.686;10.842;2023-11-21T10:39:58;103.70;;;75.47;;
23290;SDS011;11814;44.686;10.842;2023-11-21T10:42:24;103.05;;;73.13;;
23290;SDS011;11814;44.686;10.842;2023-11-21T10:44:49;100.63;;;69.88;;
23290;SDS011;11814;44.686;10.842;2023-11-21T10:47:17;94.47;;;69.35;;
23290;SDS011;11814;44.686;10.842;2023-11-21T10:49:44;90.45;;;66.50;;
23290;SDS011;11814;44.686;10.842;2023-11-21T10:52:12;92.63;;;67.43;;
23290;SDS011;11814;44.686;10.842;2023-11-21T10:54:42;91.03;;;64.75;;
23290;SDS011;11814;44.686;10.842;2023-11-21T10:57:08;91.43;;;66.13;;
23290;SDS011;11814;44.686;10.842;2023-11-21T10:59:35;87.25;;;60.47;;
23290;SDS011;11814;44.686;10.842;2023-11-21T11:02:05;88.88;;;63.67;;
23290;SDS011;11814;44.686;10.842;2023-11-21T11:04:50;91.10;;;63.85;;
23290;SDS011;11814;44.686;10.842;2023-11-21T11:07:18;95.15;;;67.78;;
23290;SDS011;11814;44.686;10.842;2023-11-21T11:09:47;93.55;;;65.47;;
23290;SDS011;11814;44.686;10.842;2023-11-21T11:12:13;95.15;;;66.38;;
23290;SDS011;11814;44.686;10.842;2023-11-21T11:14:40;89.13;;;63.63;;
23290;SDS011;11814;44.686;10.842;2023-11-21T11:17:08;91.10;;;65.43;;
23290;SDS011;11814;44.686;10.842;2023-11-21T11:19:36;89.60;;;63.67;;
23290;SDS011;11814;44.686;10.842;2023-11-21T11:24:54;92.18;;;65.90;;
23290;SDS011;11814;44.686;10.842;2023-11-21T11:27:58;83.85;;;61.50;;
23290;SDS011;11814;44.686;10.842;2023-11-21T11:33:41;83.35;;;58.53;;
23290;SDS011;11814;44.686;10.842;2023-11-21T11:38:50;81.93;;;59.80;;
23290;SDS011;11814;44.686;10.842;2023-11-21T11:41:27;88.50;;;61.50;;
23290;SDS011;11814;44.686;10.842;2023-11-21T11:43:57;82.97;;;58.60;;
23290;SDS011;11814;44.686;10.842;2023-11-21T11:46:42;89.22;;;62.67;;
23290;SDS011;11814;44.686;10.842;2023-11-21T11:49:14;84.57;;;59.80;;
23290;SDS011;11814;44.686;10.842;2023-11-21T11:52:31;81.70;;;59.17;;
23290;SDS011;11814;44.686;10.842;2023-11-21T11:54:55;83.32;;;59.67;;
23290;SDS011;11814;44.686;10.842;2023-11-21T11:57:24;79.10;;;59.88;;
23290;SDS011;11814;44.686;10.842;2023-11-21T12:02:53;80.47;;;58.75;;
23290;SDS011;11814;44.686;10.842;2023-11-21T12:05:22;80.85;;;57.25;;
23290;SDS011;11814;44.686;10.842;2023-11-21T12:07:52;82.18;;;60.17;;
23290;SDS011;11814;44.686;10.842;2023-11-21T12:10:19;84.43;;;59.33;;
23290;SDS011;11814;44.686;10.842;2023-11-21T12:12:47;84.03;;;60.03;;
23290;SDS011;11814;44.686;10.842;2023-11-21T12:15:26;79.35;;;56.75;;
23290;SDS011;11814;44.686;10.842;2023-11-21T12:17:55;77.90;;;56.15;;
23290;SDS011;11814;44.686;10.842;2023-11-21T12:20:22;81.82;;;57.05;;
23290;SDS011;11814;44.686;10.842;2023-11-21T12:22:49;76.25;;;55.55;;
23290;SDS011;11814;44.686;10.842;2023-11-21T12:25:25;79.10;;;57.40;;
23290;SDS011;11814;44.686;10.842;2023-11-21T12:27:54;77.38;;;55.90;;
23290;SDS011;11814;44.686;10.842;2023-11-21T12:30:23;84.22;;;59.78;;
23290;SDS011;11814;44.686;10.842;2023-11-21T12:32:56;80.25;;;56.42;;
23290;SDS011;11814;44.686;10.842;2023-11-21T12:35:27;80.10;;;57.95;;
23290;SDS011;11814;44.686;10.842;2023-11-21T12:37:55;79.70;;;55.42;;
23290;SDS011;11814;44.686;10.842;2023-11-21T12:40:24;75.43;;;54.35;;
23290;SDS011;11814;44.686;10.842;2023-11-21T12:42:57;81.75;;;55.28;;
23290;SDS011;11814;44.686;10.842;2023-11-21T12:45:25;81.50;;;57.40;;
23290;SDS011;11814;44.686;10.842;2023-11-21T12:47:54;80.28;;;54.75;;
23290;SDS011;11814;44.686;10.842;2023-11-21T12:50:26;75.97;;;53.75;;
23290;SDS011;11814;44.686;10.842;2023-11-21T12:52:59;74.13;;;54.05;;
23290;SDS011;11814;44.686;10.842;2023-11-21T12:55:30;76.80;;;54.67;;
23290;SDS011;11814;44.686;10.842;2023-11-21T12:57:56;79.75;;;54.35;;
23290;SDS011;11814;44.686;10.842;2023-11-21T13:00:30;75.22;;;54.40;;
23290;SDS011;11814;44.686;10.842;2023-11-21T13:02:59;76.15;;;55.65;;
23290;SDS011;11814;44.686;10.842;2023-11-21T13:05:29;76.97;;;56.90;;
23290;SDS011;11814;44.686;10.842;2023-11-21T13:07:59;75.32;;;55.10;;
23290;SDS011;11814;44.686;10.842;2023-11-21T13:10:32;84.78;;;55.90;;
23290;SDS011;11814;44.686;10.842;2023-11-21T13:13:01;77.15;;;55.40;;
23290;SDS011;11814;44.686;10.842;2023-11-21T13:15:30;78.55;;;55.80;;
23290;SDS011;11814;44.686;10.842;2023-11-21T13:17:58;90.22;;;61.45;;
23290;SDS011;11814;44.686;10.842;2023-11-21T13:20:24;90.45;;;61.38;;
23290;SDS011;11814;44.686;10.842;2023-11-21T13:22:51;89.47;;;63.20;;
23290;SDS011;11814;44.686;10.842;2023-11-21T13:25:26;89.70;;;62.08;;
23290;SDS011;11814;44.686;10.842;2023-11-21T13:27:55;86.25;;;59.47;;
23290;SDS011;11814;44.686;10.842;2023-11-21T13:30:22;93.63;;;61.78;;
23290;SDS011;11814;44.686;10.842;2023-11-21T13:32:52;84.35;;;59.10;;
23290;SDS011;11814;44.686;10.842;2023-11-21T13:35:26;83.75;;;58.03;;
23290;SDS011;11814;44.686;10.842;2023-11-21T13:38:02;84.65;;;59.22;;
23290;SDS011;11814;44.686;10.842;2023-11-21T13:40:39;78.93;;;59.13;;
23290;SDS011;11814;44.686;10.842;2023-11-21T13:43:11;84.90;;;59.15;;
23290;SDS011;11814;44.686;10.842;2023-11-21T13:45:41;85.85;;;60.20;;
23290;SDS011;11814;44.686;10.842;2023-11-21T13:48:09;81.78;;;59.53;;
23290;SDS011;11814;44.686;10.842;2023-11-21T13:50:38;89.25;;;61.28;;
23290;SDS011;11814;44.686;10.842;2023-11-21T13:53:09;82.38;;;59.92;;
23290;SDS011;11814;44.686;10.842;2023-11-21T13:55:45;77.35;;;58.45;;
23290;SDS011;11814;44.686;10.842;2023-11-21T13:58:12;75.57;;;55.60;;
23290;SDS011;11814;44.686;10.842;2023-11-21T14:00:44;79.30;;;54.55;;
23290;SDS011;11814;44.686;10.842;2023-11-21T14:03:14;72.30;;;54.08;;
23290;SDS011;11814;44.686;10.842;2023-11-21T14:05:46;94.80;;;58.40;;
23290;SDS011;11814;44.686;10.842;2023-11-21T14:08:16;77.68;;;56.35;;
23290;SDS011;11814;44.686;10.842;2023-11-21T14:10:45;77.20;;;55.85;;
23290;SDS011;11814;44.686;10.842;2023-11-21T14:13:15;75.18;;;56.15;;
23290;SDS011;11814;44.686;10.842;2023-11-21T14:15:42;77.88;;;55.47;;
23290;SDS011;11814;44.686;10.842;2023-11-21T14:18:11;78.57;;;55.42;;
23290;SDS011;11814;44.686;10.842;2023-11-21T14:20:39;75.40;;;56.55;;
23290;SDS011;11814;44.686;10.842;2023-11-21T14:23:06;70.70;;;54.30;;